Latest Coastal Weather Observations for Innisfail Aero

IDQ60701

Issued at 11:42 am EST Sunday 14 April 2024 (issued every 10 minutes, with the page automatically refreshed every 10 minutes)

About coastal observations | Map of coastal stations | Coastal observations for QLD | Marine services | Other Formats
Station Details ID: 032197 Name: INNISFAIL AERODROME Lat: -17.56 Lon: 146.01 Height: 11.84 m
Data from the previous 72 hours. | See also: Recent months at Innisfail Aero
Date/Time
EST
Wind Sea
Height
m
Swell Vis
km
Cloud Weather Temp
°C
Press
MSL
hPa
Rain since
9am
mm
Dir  Spd
kts
Gust
kts
Height
m
Period
s
Dir
14/11:30am SSE 12 17 - - - - 10 Partly cloudy - 27.2 1016.9 0.0
14/11:00am SSE 11 16 - - - - 10 Partly cloudy - 29.1 1017.2 0.0
14/10:30am SSE 13 16 - - - - 10 Partly cloudy - 27.6 1017.6 0.0
14/10:00am SE 13 16 - - - - 10 Partly cloudy - 28.3 1017.7 0.0
14/09:30am SSE 11 16 - - - - 10 Partly cloudy - 27.4 1017.9 0.0
14/09:00am S 8 15 - - - - 10 Cloudy - 26.8 1017.8 0.2
14/08:30am SSW 8 11 - - - - 10 Partly cloudy - 25.9 1017.5 0.2
14/08:00am SW 6 9 - - - - 10 Partly cloudy - 25.2 1017.1 0.2
14/07:30am WSW 6 7 - - - - 10 Partly cloudy - 23.4 1016.7 0.2
14/07:00am SW 7 8 - - - - 10 Partly cloudy - 22.6 1016.4 0.2
14/06:30am WSW 6 8 - - - - 10 Partly cloudy - 22.4 1015.9 0.2
14/06:00am SW 6 7 - - - - 10 Mostly clear - 22.2 1015.6 0.2
14/05:30am SSW 6 8 - - - - 10 Partly cloudy - 22.9 1015.5 0.2
14/05:00am S 8 15 - - - - 10 Partly cloudy - 23.5 1015.7 0.2
14/04:30am SSW 6 6 - - - - 10 Partly cloudy - 22.7 1015.5 0.2
14/04:00am SSW 6 7 - - - - 10 Partly cloudy - 22.9 1015.5 0.2
14/03:30am SSW 6 7 - - - - 10 Partly cloudy - 23.5 1015.4 0.0
14/03:00am SSW 7 8 - - - - 10 Cloudy - 23.9 1015.5 0.0
14/02:30am SSE 7 8 - - - - 10 Partly cloudy - 24.2 1015.4 0.0
14/02:00am S 6 7 - - - - 10 Partly cloudy - 24.1 1015.4 0.0
14/01:30am SSE 7 9 - - - - 10 Cloudy - 24.3 1015.5 0.0
14/01:00am SSE 7 9 - - - - 10 Partly cloudy - 24.4 1015.8 0.0
14/12:30am SW 4 5 - - - - 10 Partly cloudy - 23.2 1016.1 0.0
14/12:00am SW 5 6 - - - - 10 Cloudy - 23.3 1016.4 0.0
 
Date/Time
EST
Wind Sea
Height
m
Swell Vis
km
Cloud Weather Temp
°C
Press
MSL
hPa
Rain since
9am
mm
Dir  Spd
kts
Gust
kts
Height
m
Period
s
Dir
13/11:30pm WSW 4 5 - - - - 10 Partly cloudy - 23.3 1016.4 0.0
13/11:00pm WSW 4 5 - - - - 10 Partly cloudy - 23.2 1016.5 0.0
13/10:30pm SSW 8 10 - - - - 10 Partly cloudy - 23.5 1016.5 0.0
13/10:00pm S 7 11 - - - - 8 Partly cloudy - 23.5 1016.6 0.0
13/09:30pm SSW 6 8 - - - - 10 Partly cloudy - 23.6 1016.4 0.0
13/09:00pm SW 7 9 - - - - 10 Cloudy - 23.8 1016.5 0.0
13/08:30pm WSW 4 5 - - - - 10 Partly cloudy - 23.2 1016.5 0.0
13/08:15pm SSW 4 6 - - - - 10 Partly cloudy - 22.8 1016.3 0.0
13/08:00pm SW 5 8 - - - - 10 Partly cloudy - 22.6 1016.2 0.0
13/07:53pm W 3 8 - - - - 10 Partly cloudy - 22.5 1016.1 0.0
13/07:44pm WNW 4 6 - - - - 10 Partly cloudy - 22.4 1015.9 0.0
13/07:30pm WSW 6 8 - - - - 5 Partly cloudy - 22.5 1015.7 0.0
13/07:26pm WSW 5 7 - - - - 5 Partly cloudy - 22.4 1015.6 0.0
13/07:25pm W 5 7 - - - - 7 Partly cloudy - 22.4 1015.7 0.0
13/07:16pm WNW 5 7 - - - - 8 Partly cloudy - 22.3 1015.5 0.0
13/07:00pm WSW 4 5 - - - - 3 Partly cloudy - 22.2 1015.4 0.0
13/06:56pm W 3 5 - - - - 5 Partly cloudy - 22.2 1015.4 0.0
13/06:48pm W 5 6 - - - - 10 Partly cloudy - 22.3 1015.2 0.0
13/06:30pm E 5 10 - - - - 4 Partly cloudy - 22.2 1015.4 0.0
13/06:28pm WNW 5 10 - - - - 5 Partly cloudy - 22.3 1015.5 0.0
13/06:21pm W 4 6 - - - - 10 Partly cloudy - 22.4 1015.1 0.0
13/06:12pm SW 6 9 - - - - 10 Partly cloudy - 22.6 1014.8 0.0
13/06:00pm SW 7 8 - - - - 5 Cloudy Showers 22.9 1014.6 0.0
13/05:42pm SSW 9 11 - - - - 5 Partly cloudy - 22.8 1014.9 0.0
13/05:38pm SW 8 11 - - - - 8 Partly cloudy - 22.8 1014.8 0.0
13/05:30pm SW 8 11 - - - - 7 Partly cloudy - 22.7 1014.8 0.0
13/05:24pm SSW 7 11 - - - - 5 Partly cloudy - 23.0 1014.9 0.0
13/05:00pm SSW 8 11 - - - - 10 Partly cloudy - 24.6 1014.6 0.0
13/04:30pm SSW 9 13 - - - - 10 Partly cloudy - 25.3 1014.3 0.0
13/04:00pm S 9 13 - - - - 10 Partly cloudy - 25.6 1014.0 0.0
13/03:30pm S 11 15 - - - - 10 Partly cloudy - 26.2 1013.8 0.0
13/03:00pm S 10 13 - - - - 10 Cloudy - 26.4 1013.9 0.0
13/02:30pm S 11 14 - - - - 10 Partly cloudy - 26.1 1014.0 0.0
13/02:00pm SSE 9 15 - - - - 10 Partly cloudy - 25.2 1014.2 0.0
13/01:30pm SSE 15 19 - - - - 10 Partly cloudy - 28.0 1014.2 0.0
13/01:00pm SSE 13 17 - - - - 10 Partly cloudy - 28.3 1014.3 0.0
13/12:30pm SSE 13 21 - - - - 10 Partly cloudy - 29.1 1014.4 0.0
13/12:00pm SSE 14 18 - - - - 10 Cloudy - 28.2 1014.8 0.0
13/11:30am SSE 14 18 - - - - 10 Partly cloudy - 28.5 1015.2 0.0
13/11:00am SSE 15 20 - - - - 10 Partly cloudy - 28.2 1015.6 0.0
13/10:30am SSE 14 18 - - - - 10 Partly cloudy - 27.7 1015.8 0.0
13/10:00am SSE 13 17 - - - - 10 Partly cloudy - 28.5 1016.0 0.0
13/09:30am S 8 10 - - - - 10 Partly cloudy - 26.8 1015.9 0.0
13/09:00am SSW 7 10 - - - - 10 Cloudy - 26.0 1015.7 0.0
13/08:30am SW 4 6 - - - - 10 Partly cloudy - 26.0 1015.4 0.0
13/08:00am CALM 0 0 - - - - 10 Partly cloudy - 23.9 1015.3 0.0
13/07:30am CALM 0 0 - - - - 10 Partly cloudy - 22.4 1015.2 0.0
13/07:00am WSW 3 4 - - - - 10 Partly cloudy - 20.8 1014.8 0.0
13/06:30am SW 4 5 - - - - 10 Partly cloudy - 21.0 1014.3 0.0
13/06:00am WSW 3 5 - - - - 10 Cloudy - 21.7 1014.0 0.0
13/05:30am SW 6 8 - - - - 10 Partly cloudy - 22.0 1013.7 0.0
13/05:00am WSW 5 6 - - - - 10 Partly cloudy - 21.5 1013.7 0.0
13/04:30am WSW 5 6 - - - - 10 - - 21.7 1013.6 0.0
13/04:00am SSW 7 8 - - - - 10 - - 22.1 1013.6 0.0
13/03:30am SSW 5 6 - - - - 10 - - 22.0 1013.7 0.0
13/03:00am SW 4 5 - - - - 10 Partly cloudy - 22.2 1013.9 0.0
13/02:30am S 6 7 - - - - 10 - - 23.1 1013.9 0.0
13/02:00am SSE 7 9 - - - - 10 Partly cloudy - 23.6 1014.1 0.0
13/01:30am SSE 7 10 - - - - 10 Partly cloudy - 24.2 1014.2 0.0
13/01:00am SSE 7 9 - - - - 10 Partly cloudy - 24.6 1014.4 0.0
13/12:30am SSE 7 9 - - - - 10 Partly cloudy - 24.5 1014.6 0.0
13/12:00am SSE 7 10 - - - - 10 Mostly cloudy - 23.9 1014.7 0.0
 
Date/Time
EST
Wind Sea
Height
m
Swell Vis
km
Cloud Weather Temp
°C
Press
MSL
hPa
Rain since
9am
mm
Dir  Spd
kts
Gust
kts
Height
m
Period
s
Dir
12/11:30pm SSE 8 11 - - - - 10 Partly cloudy - 24.2 1014.8 0.0
12/11:00pm SSW 4 5 - - - - 10 Partly cloudy - 23.5 1014.9 0.0
12/10:30pm SSW 5 6 - - - - 10 Partly cloudy - 23.5 1014.8 0.0
12/10:00pm SW 5 9 - - - - 10 Partly cloudy - 23.3 1014.8 0.0
12/09:59pm SW 6 10 - - - - 10 Partly cloudy - 23.3 1014.8 0.0
12/09:54pm SSW 8 11 - - - - 10 Partly cloudy - 23.3 1014.8 0.0
12/09:38pm S 7 13 - - - - 4 Partly cloudy - 23.6 1014.9 0.0
12/09:30pm S 12 23 - - - - 3 Partly cloudy - 23.7 1014.9 0.0
12/09:24pm SSW 11 23 - - - - 4 Partly cloudy - 24.1 1014.9 0.0
12/09:23pm SW 10 23 - - - - 6 Partly cloudy - 23.7 1014.7 0.0
12/09:00pm W 8 10 - - - - 10 Cloudy Showers 23.2 1014.8 0.0
12/08:30pm S 8 13 - - - - 7 Partly cloudy - 23.4 1014.8 0.0
12/08:00pm SSW 7 10 - - - - 10 Partly cloudy - 23.7 1014.3 0.0
12/07:52pm SSW 7 9 - - - - 10 Partly cloudy - 23.7 1014.2 0.0
12/07:34pm SE 6 8 - - - - 10 Partly cloudy - 23.9 1014.2 0.0
12/07:30pm ESE 5 7 - - - - 10 Partly cloudy - 24.1 1014.1 0.0
12/07:00pm SSW 8 9 - - - - 10 Partly cloudy - 24.6 1013.4 0.0
12/06:30pm SSW 5 7 - - - - 10 Partly cloudy - 24.5 1013.3 0.0
12/06:00pm S 7 11 - - - - 10 Cloudy Rain 25.2 1013.1 0.0
12/05:30pm S 13 17 - - - - 10 Partly cloudy - 26.4 1012.7 0.0
12/05:00pm S 11 14 - - - - 10 Partly cloudy - 26.8 1012.4 0.0
12/04:30pm S 12 16 - - - - 10 Partly cloudy - 26.4 1012.5 0.0
12/04:00pm SSE 14 17 - - - - 10 Partly cloudy - 26.7 1012.3 0.0
12/03:30pm SSE 15 18 - - - - 10 Cloudy - 27.0 1012.3 0.0
12/03:00pm SSE 13 17 - - - - 10 Partly cloudy - 27.9 1012.2 0.0
12/02:30pm SE 13 17 - - - - 10 Partly cloudy - 28.2 1012.3 0.0
12/02:00pm SSE 12 17 - - - - 10 Partly cloudy - 28.9 1012.4 0.0
12/01:30pm SSE 11 18 - - - - 10 Partly cloudy - 28.8 1012.6 0.0
12/01:00pm SSE 13 18 - - - - 10 Partly cloudy - 28.9 1012.8 0.0
12/12:30pm SE 13 17 - - - - 10 Partly cloudy - 28.5 1013.3 0.0
12/12:00pm SSE 13 18 - - - - 10 Cloudy - 27.7 1013.9 0.0
12/11:30am SSE 12 18 - - - - 10 Partly cloudy - 28.6 1014.3 0.0
12/11:00am S 10 14 - - - - 10 Partly cloudy - 28.4 1014.6 0.0
12/10:30am SSE 12 18 - - - - 10 Partly cloudy - 27.8 1014.8 0.0
12/10:00am SSE 10 16 - - - - 10 Partly cloudy - 27.2 1014.9 0.0
12/09:30am S 6 10 - - - - 10 - - 26.1 1014.8 0.0
12/09:00am SW 4 5 - - - - 10 - - 25.1 1014.6 0.0
12/08:30am WSW 3 5 - - - - 10 Partly cloudy - 22.4 1014.6 0.0
12/08:00am WSW 3 5 - - - - 10 Partly cloudy - 20.5 1014.3 0.0
12/07:30am CALM 0 0 - - - - 10 Partly cloudy - 18.7 1014.2 0.0
12/07:00am WSW 2 4 - - - - 10 Partly cloudy - 17.2 1013.9 0.0
12/06:30am CALM 0 0 - - - - 10 - - 17.1 1013.6 0.0
12/06:00am CALM 0 0 - - - - 10 - - 17.5 1013.4 0.0
12/05:30am CALM 0 0 - - - - 10 Partly cloudy - 17.7 1013.3 0.0
12/05:00am CALM 0 0 - - - - 10 - - 17.6 1013.1 0.0
12/04:30am CALM 0 0 - - - - 10 Partly cloudy - 17.6 1013.0 0.0
12/04:00am CALM 0 0 - - - - 10 - - 17.5 1013.1 0.0
12/03:30am CALM 0 0 - - - - 10 - - 18.0 1013.2 0.0
12/03:00am CALM 0 3 - - - - 10 Mostly clear - 18.0 1013.4 0.0
12/02:30am CALM 0 0 - - - - 10 Partly cloudy - 17.8 1013.6 0.0
12/02:00am WNW 1 4 - - - - 10 Partly cloudy - 18.4 1013.7 0.0
12/01:30am CALM 0 0 - - - - 10 Partly cloudy - 18.5 1013.9 0.0
12/01:00am CALM 0 0 - - - - 10 - - 18.7 1014.2 0.0
12/12:30am SW 3 5 - - - - 10 Partly cloudy - 19.0 1014.6 0.0
12/12:00am CALM 0 0 - - - - 10 Mostly cloudy - 19.3 1014.9 0.0
 
Date/Time
EST
Wind Sea
Height
m
Swell Vis
km
Cloud Weather Temp
°C
Press
MSL
hPa
Rain since
9am
mm
Dir  Spd
kts
Gust
kts
Height
m
Period
s
Dir
11/11:30pm CALM 0 0 - - - - 10 Partly cloudy - 19.2 1015.0 0.0
11/11:00pm CALM 0 0 - - - - 10 Partly cloudy - 19.2 1015.1 0.0
11/10:30pm CALM 0 0 - - - - 10 Cloudy - 19.7 1015.1 0.0
11/10:00pm SW 3 4 - - - - 10 Partly cloudy - 19.1 1015.3 0.0
11/09:30pm CALM 0 0 - - - - 10 Partly cloudy - 19.6 1015.3 0.0
11/09:00pm CALM 0 0 - - - - 10 - - 20.1 1015.2 0.0
11/08:30pm WSW 1 3 - - - - 10 - - 20.4 1015.1 0.0
11/08:00pm SSW 3 4 - - - - 10 - - 21.2 1014.6 0.0
11/07:30pm S 6 6 - - - - 10 - - 21.1 1014.2 0.0
11/07:00pm S 5 6 - - - - 10 Partly cloudy - 21.8 1014.0 0.0
11/06:30pm SSE 6 7 - - - - 10 Partly cloudy - 22.4 1013.7 0.0
11/06:00pm SSE 7 9 - - - - 10 Mostly clear - 23.6 1013.4 0.0
11/05:30pm SE 8 10 - - - - 10 - - 25.8 1013.1 0.0
11/05:00pm SSE 11 15 - - - - 10 - - 26.6 1012.9 0.0
11/04:30pm SSE 11 18 - - - - 10 Partly cloudy - 26.8 1012.5 0.0
11/04:00pm SSE 12 17 - - - - 10 Partly cloudy - 27.3 1012.2 0.0
11/03:30pm SE 13 19 - - - - 10 Partly cloudy - 27.4 1012.0 0.0
11/03:00pm SE 12 17 - - - - 10 Mostly cloudy - 27.6 1011.7 0.0
11/02:30pm SE 14 22 - - - - 10 Partly cloudy - 28.2 1011.9 0.0
11/02:00pm SE 14 19 - - - - 10 Partly cloudy - 28.4 1012.0 0.0
11/01:30pm SE 12 16 - - - - 10 Partly cloudy - 28.8 1012.3 0.0
11/01:00pm ESE 12 16 - - - - 10 Partly cloudy - 27.7 1012.6 0.0
11/12:30pm ESE 12 18 - - - - 10 Partly cloudy - 29.0 1013.0 0.0
11/12:00pm SE 12 17 - - - - 10 Cloudy - 28.7 1013.5 0.0

Other formats

Comma delimited format used in spreadsheet applications
http://www.bom.gov.au/fwo/IDQ60701/IDQ60701.94280.axf

JavaScript Object Notation format (JSON) in row-major order
http://www.bom.gov.au/fwo/IDQ60701/IDQ60701.94280.json

Data quality

Most of these data are generated automatically and are frequently updated. Quality checks on data are not normally performed. It is possible for incorrect values to appear. Refer to information at About Latest Weather Observations and please check the disclaimer before using these data.